This is the latest recevied weather packets stored in our database for station/object OE-4057. If no packets are shown the sender has not sent any weather packets the latest 10 day(s).
| Time | Temp. | Humidity | Pressure | Rain* | Wind** | Luminosity | Snow |
|---|---|---|---|---|---|---|---|
| 1788257471 | 20° C | 62% | 1022.1 hPa | - | - | - | - |
| 1788255671 | 19.44° C | 66% | 1022.3 hPa | - | - | - | - |
| 1788253871 | 18.33° C | 67% | 1022.5 hPa | - | - | - | - |
| 1788252071 | 18.33° C | 69% | 1022.6 hPa | - | - | - | - |
| 1788180071 | 23.89° C | 57% | 1014.7 hPa | - | - | - | - |
| 1788178271 | 22.78° C | 63% | 1016 hPa | - | - | - | - |
| 1788176471 | 22.22° C | 64% | 1016.2 hPa | - | - | - | - |
| 1788174671 | 21.67° C | 68% | 1016.3 hPa | - | - | - | - |
| 1788172871 | 21.67° C | 66% | 1017.4 hPa | - | - | - | - |
| 1788171071 | 21.11° C | 68% | 1017.5 hPa | - | - | - | - |
| 1788169271 | 20.56° C | 71% | 1017.7 hPa | - | - | - | - |
| 1788167470 | 20° C | 73% | 1017.8 hPa | - | - | - | - |
| 1788165671 | 18.89° C | 78% | 1019.2 hPa | - | - | - | - |
| 1788163871 | 17.78° C | 84% | 1019.4 hPa | - | - | - | - |
| 1788162071 | 16.67° C | 89% | 1019.7 hPa | - | - | - | - |
| 1788160271 | 16.67° C | 88% | 1018.6 hPa | - | - | - | - |
| 1788158471 | 16.67° C | 88% | 1018.7 hPa | - | - | - | - |
| 1788156670 | 16.67° C | 85% | 1019.7 hPa | - | - | - | - |
| 1788154871 | 16.67° C | 86% | 1018.7 hPa | - | - | - | - |
| 1788153071 | 16.11° C | 86% | 1017.7 hPa | - | - | - | - |
| 1788151270 | 15.56° C | 87% | 1017.8 hPa | - | - | - | - |
| 1788149709 | 15.56° C | 87% | 1017.8 hPa | - | - | - | - |
| 1788145870 | 16.11° C | 86% | 1017.7 hPa | - | - | - | - |
| 1788144071 | 16.11° C | 85% | 1017.7 hPa | - | - | - | - |
| 1788120671 | 20.56° C | 70% | 1015.5 hPa | - | - | - | - |
* Rain since midnight (hover to see other rain measurements)
** Current wind speed in m/s (hover to see current wind gust speed)